Gainesville Municipal Airport


Codes: KGLE/GLE
Name: Gainesville Municipal Airport
City: Gainesville
Country: United States
Elevation: 845 ft.
Website:
Wikipedia:

Photos at Gainesville Municipal Airport


   Photos courtesy of SpottingLog. You can add your own sightings and photos by signing up for a free trial today.



No photos found.

Weather at Gainesville Municipal Airport


Time (UTC)DescriptionTempratureWindCloud coverageVisibilityPressureHumidity
25-Jun-2024 21:00Broken Clouds35°C16 mph, S75%10000m1012hPa56%
26-Jun-2024 00:00Broken Clouds34°C16 mph, S69%10000m1011hPa55%
26-Jun-2024 03:00Broken Clouds31°C11 mph, S73%10000m1010hPa62%
26-Jun-2024 06:00Broken Clouds28°C11 mph, S60%10000m1010hPa68%
26-Jun-2024 09:00Clear Sky26°C9 mph, S6%10000m1009hPa77%
26-Jun-2024 12:00Clear Sky26°C13 mph, S3%10000m1009hPa78%
26-Jun-2024 15:00Clear Sky32°C16 mph, SW0%10000m1009hPa57%
26-Jun-2024 18:00Clear Sky37°C11 mph, W0%10000m1009hPa41%
26-Jun-2024 21:00Clear Sky39°C7 mph, SW0%10000m1007hPa34%
27-Jun-2024 00:00Clear Sky38°C9 mph, SE6%10000m1005hPa39%
27-Jun-2024 03:00Clear Sky31°C7 mph, S1%10000m1006hPa58%
27-Jun-2024 06:00Light Rain28°C7 mph, E1%10000m1008hPa74%
27-Jun-2024 09:00Light Rain26°C7 mph, SE1%10000m1008hPa83%
27-Jun-2024 12:00Clear Sky25°C7 mph, SE3%10000m1009hPa86%
27-Jun-2024 15:00Scattered Clouds32°C9 mph, SE40%10000m1009hPa57%
27-Jun-2024 18:00Few Clouds37°C11 mph, S21%10000m1007hPa41%
27-Jun-2024 21:00Clear Sky39°C11 mph, S1%10000m1005hPa35%
28-Jun-2024 00:00Clear Sky35°C22 mph, SE5%10000m1003hPa46%
28-Jun-2024 03:00Clear Sky32°C16 mph, SE3%10000m1005hPa51%
28-Jun-2024 06:00Scattered Clouds30°C16 mph, S31%10000m1005hPa60%
28-Jun-2024 09:00Overcast Clouds28°C16 mph, S99%10000m1005hPa61%
28-Jun-2024 12:00Overcast Clouds27°C11 mph, S100%10000m1007hPa72%
28-Jun-2024 15:00Overcast Clouds30°C16 mph, S100%10000m1007hPa60%
28-Jun-2024 18:00Broken Clouds35°C18 mph, S70%10000m1006hPa43%
28-Jun-2024 21:00Scattered Clouds37°C20 mph, S28%10000m1005hPa36%
29-Jun-2024 00:00Few Clouds35°C18 mph, S17%10000m1005hPa39%
29-Jun-2024 03:00Scattered Clouds31°C20 mph, S43%10000m1006hPa54%
29-Jun-2024 06:00Scattered Clouds29°C20 mph, S25%10000m1008hPa60%
29-Jun-2024 09:00Clear Sky27°C16 mph, S5%10000m1010hPa74%
29-Jun-2024 12:00Scattered Clouds26°C11 mph, S26%10000m1013hPa84%
29-Jun-2024 15:00Scattered Clouds30°C16 mph, S37%10000m1015hPa63%
29-Jun-2024 18:00Scattered Clouds35°C13 mph, S29%10000m1015hPa46%
29-Jun-2024 21:00Scattered Clouds37°C11 mph, S42%10000m1014hPa37%
30-Jun-2024 00:00Broken Clouds34°C13 mph, SE66%10000m1013hPa44%
30-Jun-2024 03:00Few Clouds30°C9 mph, SE13%10000m1015hPa55%
30-Jun-2024 06:00Scattered Clouds29°C9 mph, SE28%10000m1017hPa56%
30-Jun-2024 09:00Overcast Clouds28°C9 mph, S100%10000m1017hPa62%
30-Jun-2024 12:00Light Rain25°C7 mph, SW100%10000m1019hPa80%
30-Jun-2024 15:00Light Rain31°C11 mph, SW54%10000m1019hPa59%
30-Jun-2024 18:00Broken Clouds36°C9 mph, S54%10000m1018hPa42%